createdAt,value
2018-12-18T00:01:44.799Z,2.80
2018-12-18T00:06:35.685Z,2.80
2018-12-18T00:11:26.586Z,2.80
2018-12-18T00:16:18.209Z,2.80
2018-12-18T00:21:09.909Z,2.80
2018-12-18T00:26:00.801Z,2.80
2018-12-18T00:30:51.741Z,2.80
2018-12-18T00:35:42.625Z,2.80
2018-12-18T00:40:33.512Z,2.90
2018-12-18T00:45:25.161Z,2.90
2018-12-18T00:50:16.836Z,2.90
2018-12-18T00:55:07.725Z,2.90
2018-12-18T00:59:59.387Z,2.90
2018-12-18T01:04:50.321Z,2.90
2018-12-18T01:09:41.213Z,2.90
2018-12-18T01:14:32.105Z,2.90
2018-12-18T01:19:23.737Z,2.90
2018-12-18T01:24:15.369Z,2.90
2018-12-18T01:29:06.267Z,2.90
2018-12-18T01:33:59.442Z,2.90
2018-12-18T01:38:48.839Z,3.00
2018-12-18T01:43:39.729Z,2.90
2018-12-18T01:48:30.616Z,2.90
2018-12-18T01:53:21.523Z,3.00
2018-12-18T01:58:12.430Z,3.00
2018-12-18T02:03:04.072Z,3.00
2018-12-18T02:07:54.961Z,3.00
2018-12-18T02:12:45.858Z,3.00
2018-12-18T02:17:36.774Z,3.10
2018-12-18T02:22:27.670Z,3.10
2018-12-18T02:27:18.563Z,3.10
2018-12-18T02:32:09.458Z,3.10
2018-12-18T02:37:00.458Z,3.10
2018-12-18T02:41:51.347Z,3.10
2018-12-18T02:46:42.260Z,3.10
2018-12-18T02:51:33.158Z,3.10
2018-12-18T02:56:24.135Z,3.10
2018-12-18T03:01:15.037Z,3.20
2018-12-18T03:06:05.942Z,3.20
2018-12-18T03:10:56.838Z,3.20
2018-12-18T03:15:47.721Z,3.20
2018-12-18T03:20:38.623Z,3.20
2018-12-18T03:25:29.537Z,3.20
2018-12-18T03:30:20.442Z,3.20
2018-12-18T03:35:11.349Z,3.20
2018-12-18T03:40:02.241Z,3.20
2018-12-18T03:44:53.873Z,3.20
2018-12-18T03:49:45.511Z,3.20
2018-12-18T03:54:36.419Z,3.20
2018-12-18T03:59:28.053Z,3.30
2018-12-18T04:04:19.704Z,3.30
2018-12-18T04:09:10.597Z,3.30
2018-12-18T04:14:01.492Z,3.30
2018-12-18T04:18:52.401Z,3.30
2018-12-18T04:23:43.305Z,3.30
2018-12-18T04:28:34.201Z,3.30
2018-12-18T04:33:25.115Z,3.30
2018-12-18T04:38:16.024Z,3.30
2018-12-18T04:43:07.668Z,3.20
2018-12-18T04:47:58.607Z,3.30
2018-12-18T04:52:49.556Z,3.20
2018-12-18T04:57:40.459Z,3.30
2018-12-18T05:02:31.362Z,3.30
2018-12-18T05:07:22.316Z,3.30
2018-12-18T05:12:13.214Z,3.30
2018-12-18T05:17:04.145Z,3.30
2018-12-18T05:21:55.045Z,3.30
2018-12-18T05:26:45.939Z,3.30
2018-12-18T05:31:36.833Z,3.30
2018-12-18T05:36:28.491Z,3.40
2018-12-18T05:41:19.402Z,3.30
2018-12-18T05:46:11.089Z,3.30
2018-12-18T05:51:01.995Z,3.30
2018-12-18T05:55:52.951Z,3.40
2018-12-18T06:00:43.858Z,3.40
2018-12-18T06:05:34.761Z,3.40
2018-12-18T06:10:25.674Z,3.40
2018-12-18T06:15:16.566Z,3.40
2018-12-18T06:20:07.482Z,3.40
2018-12-18T06:24:58.365Z,3.40
2018-12-18T06:29:49.274Z,3.40
2018-12-18T06:34:40.182Z,3.40
2018-12-18T06:39:31.091Z,3.40
2018-12-18T06:44:22.015Z,3.50
2018-12-18T06:49:12.918Z,3.50
2018-12-18T06:54:03.817Z,3.50
2018-12-18T06:58:54.706Z,3.50
2018-12-18T07:03:46.406Z,3.50
2018-12-18T07:08:37.300Z,3.50
2018-12-18T07:13:28.233Z,3.50
2018-12-18T07:18:19.125Z,3.50
2018-12-18T07:23:10.077Z,3.50
2018-12-18T07:28:00.973Z,3.50
2018-12-18T07:32:51.910Z,3.50
2018-12-18T07:37:42.810Z,3.50
2018-12-18T07:42:34.067Z,3.50
2018-12-18T07:47:24.967Z,3.60
2018-12-18T07:52:15.860Z,3.60
2018-12-18T07:57:06.818Z,3.60
2018-12-18T08:01:58.241Z,3.60
2018-12-18T08:06:49.126Z,3.60
2018-12-18T08:11:40.098Z,3.60
2018-12-18T08:16:31.119Z,3.70
2018-12-18T08:21:22.038Z,3.70
2018-12-18T08:26:13.042Z,3.70
2018-12-18T08:31:03.969Z,3.80
2018-12-18T08:35:54.885Z,3.80
2018-12-18T08:40:45.793Z,3.80
2018-12-18T08:45:36.731Z,3.80
2018-12-18T08:50:27.630Z,3.90
2018-12-18T08:55:18.529Z,3.90
2018-12-18T09:00:09.408Z,3.90
2018-12-18T09:05:01.037Z,4.00
2018-12-18T09:09:52.686Z,4.00
2018-12-18T09:14:44.326Z,4.00
2018-12-18T09:19:35.956Z,4.10
2018-12-18T09:24:27.691Z,4.10
2018-12-18T09:29:19.325Z,4.10
2018-12-18T09:34:10.957Z,4.20
2018-12-18T09:39:08.734Z,4.30
2018-12-18T09:44:06.675Z,4.30
2018-12-18T09:48:57.589Z,4.30
2018-12-18T09:53:48.508Z,4.30
2018-12-18T09:58:39.415Z,4.30
2018-12-18T10:03:33.520Z,4.40
2018-12-18T10:08:21.241Z,4.40
2018-12-18T10:13:12.133Z,4.50
2018-12-18T10:18:03.767Z,4.60
2018-12-18T10:22:55.418Z,4.70
2018-12-18T10:27:47.048Z,4.70
2018-12-18T10:32:38.673Z,4.80
2018-12-18T10:37:30.382Z,4.80
2018-12-18T10:42:21.279Z,4.80
2018-12-18T10:47:12.183Z,4.90
2018-12-18T10:52:03.106Z,4.90
2018-12-18T10:56:54.059Z,5.00
2018-12-18T11:01:45.973Z,5.10
2018-12-18T11:06:36.872Z,5.10
2018-12-18T11:11:27.779Z,5.20
2018-12-18T11:16:18.762Z,5.30
2018-12-18T11:21:09.790Z,5.30
2018-12-18T11:26:00.690Z,5.40
2018-12-18T11:30:51.766Z,5.50
2018-12-18T11:35:42.885Z,5.50
2018-12-18T11:40:34.596Z,5.70
2018-12-18T11:45:25.495Z,5.60
2018-12-18T11:50:16.398Z,5.90
2018-12-18T11:55:07.302Z,6.40
2018-12-18T11:59:58.190Z,6.80
2018-12-18T12:04:49.854Z,7.80
2018-12-18T12:09:40.814Z,7.70
2018-12-18T12:14:33.202Z,8.50
2018-12-18T12:19:24.830Z,8.50
2018-12-18T12:24:16.559Z,8.50
2018-12-18T12:29:08.229Z,8.40
2018-12-18T12:33:59.259Z,8.40
2018-12-18T12:38:50.153Z,8.30
2018-12-18T12:43:41.815Z,8.30
2018-12-18T12:48:38.891Z,8.30
2018-12-18T12:53:29.826Z,8.60
2018-12-18T12:58:20.732Z,9.00
2018-12-18T13:03:11.631Z,9.30
2018-12-18T13:08:02.588Z,9.40
2018-12-18T13:12:53.490Z,9.50
2018-12-18T13:17:44.414Z,9.50
2018-12-18T13:22:35.305Z,9.40
2018-12-18T13:27:26.254Z,9.30
2018-12-18T13:32:17.144Z,9.20
2018-12-18T13:37:08.034Z,9.10
2018-12-18T13:41:59.683Z,8.80
2018-12-18T13:46:50.590Z,8.80
2018-12-18T13:51:41.485Z,8.60
2018-12-18T13:56:32.484Z,8.50
2018-12-18T14:01:23.373Z,8.30
2018-12-18T14:06:14.266Z,8.20
2018-12-18T14:11:05.183Z,8.00
2018-12-18T14:15:56.166Z,7.90
2018-12-18T14:20:47.066Z,7.70
2018-12-18T14:25:37.963Z,7.60
2018-12-18T14:30:28.858Z,7.50
2018-12-18T14:35:19.759Z,7.40
2018-12-18T14:40:11.393Z,7.20
2018-12-18T14:45:03.025Z,7.10
2018-12-18T14:49:53.921Z,7.10
2018-12-18T14:54:44.817Z,7.10
2018-12-18T14:59:35.722Z,7.00
2018-12-18T15:04:26.623Z,6.90
2018-12-18T15:09:17.566Z,6.80
2018-12-18T15:14:08.838Z,6.60
2018-12-18T15:18:59.735Z,6.50
2018-12-18T15:23:50.639Z,6.40
2018-12-18T15:28:41.569Z,6.30
2018-12-18T15:33:32.492Z,6.20
2018-12-18T15:38:23.519Z,6.00
2018-12-18T15:43:14.419Z,5.90
2018-12-18T15:48:05.319Z,5.70
2018-12-18T15:52:56.209Z,5.60
2018-12-18T15:57:47.960Z,5.30
2018-12-18T16:02:38.862Z,5.30
2018-12-18T16:07:30.826Z,5.00
2018-12-18T16:12:21.731Z,5.00
2018-12-18T16:17:13.370Z,4.70
2018-12-18T16:22:04.269Z,4.70
2018-12-18T16:26:55.969Z,4.40
2018-12-18T16:31:46.854Z,4.40
2018-12-18T16:36:37.768Z,4.30
2018-12-18T16:41:28.664Z,4.20
2018-12-18T16:46:20.379Z,3.90
2018-12-18T16:51:12.022Z,3.80
2018-12-18T16:56:02.919Z,3.80
2018-12-18T17:00:53.888Z,3.70
2018-12-18T17:05:44.747Z,3.60
2018-12-18T17:10:35.645Z,3.50
2018-12-18T17:15:26.543Z,3.40
2018-12-18T17:20:18.230Z,3.30
2018-12-18T17:25:09.118Z,3.20
2018-12-18T17:30:00.286Z,3.20
2018-12-18T17:34:51.191Z,3.10
2018-12-18T17:39:42.077Z,3.00
2018-12-18T17:44:33.000Z,3.00
2018-12-18T17:49:23.899Z,2.90
2018-12-18T17:54:14.800Z,2.90
2018-12-18T17:59:06.433Z,2.80
2018-12-18T18:03:58.086Z,2.70
2018-12-18T18:08:49.070Z,2.70
2018-12-18T18:13:39.974Z,2.70
2018-12-18T18:18:30.868Z,2.60
2018-12-18T18:23:21.771Z,2.60
2018-12-18T18:28:12.677Z,2.50
2018-12-18T18:33:03.581Z,2.50
2018-12-18T18:37:55.213Z,2.40
2018-12-18T18:42:46.106Z,2.40
2018-12-18T18:47:36.998Z,2.40
2018-12-18T18:52:27.898Z,2.30
2018-12-18T18:57:19.138Z,2.30
2018-12-18T19:02:10.014Z,2.20
2018-12-18T19:07:01.725Z,2.20
2018-12-18T19:11:52.635Z,2.10
2018-12-18T19:16:43.581Z,2.10
2018-12-18T19:21:34.481Z,2.10
2018-12-18T19:26:25.370Z,2.00
2018-12-18T19:31:16.269Z,2.00
2018-12-18T19:36:07.169Z,2.00
2018-12-18T19:40:58.805Z,1.90
2018-12-18T19:45:50.441Z,1.90
2018-12-18T19:50:42.083Z,1.80
2018-12-18T19:55:33.772Z,1.80
2018-12-18T20:00:24.659Z,1.80
2018-12-18T20:05:15.572Z,1.80
2018-12-18T20:10:06.461Z,1.80
2018-12-18T20:14:58.097Z,1.80
2018-12-18T20:19:49.747Z,1.80
2018-12-18T20:24:40.642Z,1.80
2018-12-18T20:29:31.542Z,1.70
2018-12-18T20:34:22.438Z,1.70
2018-12-18T20:39:13.333Z,1.70
2018-12-18T20:44:04.226Z,1.70
2018-12-18T20:48:55.878Z,1.60
2018-12-18T20:53:46.889Z,1.60
2018-12-18T20:58:38.528Z,1.60
2018-12-18T21:03:30.165Z,1.60
2018-12-18T21:08:23.475Z,1.60
2018-12-18T21:13:18.539Z,1.60
2018-12-18T21:18:10.412Z,1.50
2018-12-18T21:23:01.505Z,1.50
2018-12-18T21:27:53.387Z,1.40
2018-12-18T21:32:44.465Z,1.40
2018-12-18T21:37:36.273Z,1.30
2018-12-18T21:42:27.350Z,1.30
2018-12-18T21:47:18.409Z,1.20
2018-12-18T21:52:09.476Z,1.20
2018-12-18T21:57:01.487Z,1.10
2018-12-18T22:01:52.565Z,1.10
2018-12-18T22:06:43.690Z,1.10
2018-12-18T22:11:34.937Z,1.00
2018-12-18T22:16:26.003Z,1.00
2018-12-18T22:21:17.161Z,0.90
2018-12-18T22:26:08.258Z,0.90
2018-12-18T22:30:59.990Z,0.80
2018-12-18T22:35:51.703Z,0.80
2018-12-18T22:40:42.602Z,0.70
2018-12-18T22:45:33.546Z,0.70
2018-12-18T22:50:24.549Z,0.70
2018-12-18T22:55:15.474Z,0.70
2018-12-18T23:00:06.446Z,0.60
2018-12-18T23:04:57.443Z,0.60
2018-12-18T23:09:48.454Z,0.60
2018-12-18T23:14:39.457Z,0.60
2018-12-18T23:19:30.419Z,0.60
2018-12-18T23:24:22.051Z,0.50
2018-12-18T23:29:13.757Z,0.50
2018-12-18T23:34:04.679Z,0.50
2018-12-18T23:38:56.999Z,0.50
2018-12-18T23:43:47.426Z,0.50
2018-12-18T23:48:39.827Z,0.50
2018-12-18T23:53:29.366Z,0.50
2018-12-18T23:58:20.281Z,0.50
